CST,Max TemperatureF,Mean TemperatureF,Min TemperatureF,Max Dew PointF,MeanDew PointF,Min DewpointF,Max Humidity, Mean Humidity, Min Humidity, Max Sea Level PressureIn, Mean Sea Level PressureIn, Min Sea Level PressureIn, Max VisibilityMiles, Mean VisibilityMiles, Min VisibilityMiles, Max Wind SpeedMPH, Mean Wind SpeedMPH, Max Gust SpeedMPH,PrecipitationIn, CloudCover, Events, WindDirDegrees
2012-12-1,66,57,48,52,49,45,93,71,59,30.16,30.08,30.01,10,10,8,21,10,29,0.00,4,,180
2012-12-2,69,64,59,59,56,50,88,78,63,30.11,30.06,30.02,10,10,10,18,14,29,0.00,6,,192
2012-12-3,69,64,60,59,56,54,88,78,60,30.08,30.02,29.96,10,10,10,24,14,32,0.00,5,,183
2012-12-4,62,48,35,59,46,32,94,81,62,30.32,30.16,29.99,10,10,3,14,7,16,0.13,4,,324
2012-12-5,57,44,30,37,33,27,93,71,41,30.38,30.28,30.15,10,10,9,10,2,,0.00,0,,85
2012-12-6,55,44,32,45,37,28,93,75,47,30.15,30.02,29.93,10,10,8,12,2,,0.00,5,,165
2012-12-7,60,54,48,54,48,45,100,82,59,29.93,29.88,29.83,10,7,0,8,3,,0.00,8,,197
2012-12-8,51,48,44,46,44,43,93,90,82,29.99,29.94,29.87,10,6,1,10,6,,0.00,8,,17
2012-12-9,53,47,41,54,45,34,100,92,76,29.92,29.84,29.75,10,4,0,12,5,21,0.01,8,Thunderstorm,320
2012-12-10,39,32,24,34,20,16,81,71,64,30.08,29.96,29.87,10,10,10,15,10,22,0.00,7,,312
2012-12-11,41,28,15,21,17,12,93,66,42,30.23,30.14,30.07,10,10,7,20,3,,0.00,0,,182
2012-12-12,48,32,17,27,19,14,93,62,29,30.35,30.29,30.23,10,10,9,13,3,,0.00,0,,172
2012-12-13,51,40,28,27,24,19,80,57,30,30.35,30.29,30.22,10,10,10,16,8,20,0.00,0,,174
2012-12-14,51,42,33,36,28,23,71,54,38,30.26,30.16,29.99,10,10,10,15,7,21,0.00,2,,172
2012-12-15,57,50,42,52,46,37,94,85,72,29.98,29.78,29.67,10,9,2,24,15,32,0.16,6,,182
2012-12-16,51,43,35,46,39,32,100,80,62,29.78,29.73,29.66,10,9,2,8,3,,0.00,0,,183
2012-12-17,41,38,35,39,37,30,100,91,75,29.83,29.72,29.67,10,5,0,10,5,16,0.00,7,,325
2012-12-18,55,42,28,37,33,27,100,75,44,29.91,29.82,29.74,10,8,2,20,6,24,0.00,0,,188
2012-12-19,55,42,28,52,38,25,94,84,70,29.98,29.85,29.56,10,8,1,15,4,24,0.16,4,Thunderstorm,111
2012-12-20,53,40,26,52,31,16,94,72,57,30.00,29.62,29.32,10,10,5,28,15,41,0.52,6,Thunderstorm,259
2012-12-21,39,32,24,16,11,7,64,47,26,30.30,30.20,30.01,10,10,10,22,14,34,0.00,0,,301
2012-12-22,48,32,17,27,17,10,93,58,30,30.29,30.17,29.99,10,10,10,14,4,,0.00,0,,174
2012-12-23,60,50,39,39,31,23,71,55,41,29.99,29.92,29.85,10,10,10,9,6,,0.00,2,,164
2012-12-24,42,32,23,34,25,18,87,71,49,30.10,29.94,29.80,10,8,5,18,6,23,0.00,4,,331
2012-12-25,32,26,21,25,21,16,86,76,64,30.20,30.07,29.89,10,8,5,24,11,32,0.00,7,,28
2012-12-26,30,28,26,27,21,19,93,76,64,30.17,30.00,29.84,10,8,1,21,14,31,0.00,8,,335
2012-12-27,33,28,24,23,20,18,80,70,60,30.21,30.12,30.05,10,10,10,12,4,,0.00,3,,132
2012-12-28,35,32,28,30,28,23,100,87,75,30.04,29.95,29.87,10,7,0,8,6,,0.24,8,,190
2012-12-29,30,21,10,28,20,7,100,84,69,30.34,30.15,29.91,10,6,2,16,8,26,0.02,5,,283
2012-12-30,37,22,8,25,18,1,100,79,60,30.46,30.37,30.27,10,10,5,14,3,,0.01,0,,172
2012-12-31,35,32,30,32,28,21,93,81,64,30.26,30.15,30.06,10,6,1,10,5,,0.16,8,,185